createdAt,value
2022-11-30T00:01:47.061Z,7.16
2022-11-30T00:04:14.754Z,7.20
2022-11-30T00:06:43.732Z,7.09
2022-11-30T00:09:11.435Z,7.21
2022-11-30T00:11:40.374Z,7.16
2022-11-30T00:14:08.036Z,7.13
2022-11-30T00:16:35.699Z,7.02
2022-11-30T00:19:03.393Z,7.28
2022-11-30T00:21:31.217Z,7.19
2022-11-30T00:23:58.808Z,7.31
2022-11-30T00:26:26.479Z,7.40
2022-11-30T00:28:55.565Z,7.42
2022-11-30T00:31:24.763Z,7.49
2022-11-30T00:33:52.472Z,7.36
2022-11-30T00:36:22.540Z,7.24
2022-11-30T00:38:51.450Z,7.38
2022-11-30T00:41:20.266Z,7.16
2022-11-30T00:43:48.144Z,7.08
2022-11-30T00:46:17.212Z,7.24
2022-11-30T00:48:45.121Z,6.95
2022-11-30T00:51:13.786Z,7.15
2022-11-30T00:53:42.598Z,6.91
2022-11-30T00:56:11.202Z,7.14
2022-11-30T00:58:38.918Z,7.07
2022-11-30T01:01:07.102Z,7.13
2022-11-30T01:03:37.160Z,7.21
2022-11-30T01:06:05.757Z,7.03
2022-11-30T01:08:34.157Z,7.10
2022-11-30T01:11:07.894Z,7.07
2022-11-30T01:13:35.623Z,7.24
2022-11-30T01:16:09.333Z,7.24
2022-11-30T01:18:39.232Z,6.88
2022-11-30T01:21:08.083Z,7.25
2022-11-30T01:23:36.042Z,7.23
2022-11-30T01:26:03.947Z,7.10
2022-11-30T01:28:31.635Z,7.03
2022-11-30T01:30:59.852Z,7.14
2022-11-30T01:33:27.558Z,7.27
2022-11-30T01:36:07.943Z,7.23
2022-11-30T01:38:36.960Z,7.26
2022-11-30T01:41:06.599Z,7.33
2022-11-30T01:43:42.854Z,7.10
2022-11-30T01:46:25.212Z,7.16
2022-11-30T01:48:59.996Z,7.18
2022-11-30T01:51:33.893Z,7.26
2022-11-30T01:54:02.342Z,7.02
2022-11-30T01:56:30.065Z,7.18
2022-11-30T01:58:58.929Z,7.25
2022-11-30T02:01:26.639Z,7.14
2022-11-30T02:04:00.199Z,7.32
2022-11-30T02:06:30.466Z,7.29
2022-11-30T02:08:58.255Z,7.15
2022-11-30T02:11:28.691Z,7.26
2022-11-30T02:14:31.679Z,7.14
2022-11-30T02:17:09.571Z,7.03
2022-11-30T02:20:05.555Z,7.12
2022-11-30T02:22:47.232Z,7.17
2022-11-30T02:25:22.774Z,7.27
2022-11-30T02:28:13.698Z,7.15
2022-11-30T02:30:48.069Z,7.10
2022-11-30T02:33:19.334Z,7.12
2022-11-30T02:35:54.505Z,7.15
2022-11-30T02:38:24.981Z,7.29
2022-11-30T02:40:52.969Z,7.23
2022-11-30T02:43:22.679Z,7.11
2022-11-30T02:46:00.586Z,7.24
2022-11-30T02:48:33.405Z,7.12
2022-11-30T02:51:05.673Z,7.10
2022-11-30T02:53:33.477Z,7.34
2022-11-30T02:56:01.505Z,7.17
2022-11-30T02:58:29.377Z,7.18
2022-11-30T03:00:58.434Z,7.27
2022-11-30T03:03:26.199Z,7.04
2022-11-30T03:05:53.896Z,6.95
2022-11-30T03:08:21.524Z,6.99
2022-11-30T03:10:49.189Z,7.04
2022-11-30T03:13:16.874Z,7.29
2022-11-30T03:15:44.564Z,7.27
2022-11-30T03:18:14.059Z,7.10
2022-11-30T03:20:42.434Z,7.23
2022-11-30T03:23:10.466Z,7.22
2022-11-30T03:25:39.216Z,7.15
2022-11-30T03:28:06.823Z,7.36
2022-11-30T03:30:35.294Z,7.26
2022-11-30T03:33:02.949Z,7.47
2022-11-30T03:35:31.892Z,7.30
2022-11-30T03:37:59.570Z,7.26
2022-11-30T03:40:27.193Z,7.35
2022-11-30T03:42:54.821Z,7.41
2022-11-30T03:45:22.515Z,7.35
2022-11-30T03:47:50.134Z,7.28
2022-11-30T03:50:17.804Z,7.15
2022-11-30T03:52:46.963Z,7.34
2022-11-30T03:55:14.606Z,7.28
2022-11-30T03:57:42.497Z,7.28
2022-11-30T04:00:11.723Z,7.18
2022-11-30T04:02:44.478Z,7.24
2022-11-30T04:05:13.338Z,7.32
2022-11-30T04:07:41.000Z,7.22
2022-11-30T04:10:11.689Z,7.18
2022-11-30T04:12:39.757Z,7.10
2022-11-30T04:15:08.760Z,7.27
2022-11-30T04:17:36.460Z,7.26
2022-11-30T04:20:04.613Z,7.41
2022-11-30T04:22:32.246Z,7.30
2022-11-30T04:24:59.848Z,7.20
2022-11-30T04:27:30.654Z,7.29
2022-11-30T04:29:58.502Z,7.28
2022-11-30T04:32:26.166Z,7.37
2022-11-30T04:34:54.910Z,7.29
2022-11-30T04:37:22.581Z,7.28
2022-11-30T04:39:50.210Z,7.13
2022-11-30T04:42:18.299Z,6.93
2022-11-30T04:44:47.576Z,7.25
2022-11-30T04:47:15.471Z,7.16
2022-11-30T04:49:43.421Z,7.10
2022-11-30T04:52:11.027Z,7.30
2022-11-30T04:54:38.833Z,7.39
2022-11-30T04:57:06.878Z,7.32
2022-11-30T04:59:34.526Z,7.44
2022-11-30T05:02:03.560Z,7.30
2022-11-30T05:04:31.335Z,7.26
2022-11-30T05:06:59.336Z,7.12
2022-11-30T05:09:26.988Z,7.19
2022-11-30T05:11:54.695Z,7.27
2022-11-30T05:14:22.391Z,7.24
2022-11-30T05:16:50.471Z,7.21
2022-11-30T05:19:19.611Z,6.90
2022-11-30T05:21:48.300Z,7.21
2022-11-30T05:24:15.891Z,7.29
2022-11-30T05:26:43.903Z,7.37
2022-11-30T05:29:11.762Z,6.94
2022-11-30T05:31:41.006Z,7.21
2022-11-30T05:34:08.804Z,7.11
2022-11-30T05:36:37.820Z,7.15
2022-11-30T05:39:05.768Z,7.44
2022-11-30T05:41:33.453Z,7.42
2022-11-30T05:44:01.288Z,7.36
2022-11-30T05:46:29.069Z,7.39
2022-11-30T05:48:56.792Z,7.42
2022-11-30T05:51:24.459Z,7.37
2022-11-30T05:53:53.498Z,7.04
2022-11-30T05:56:22.725Z,7.38
2022-11-30T05:58:50.406Z,7.37
2022-11-30T06:01:19.933Z,7.23
2022-11-30T06:03:47.773Z,7.39
2022-11-30T06:06:15.699Z,7.40
2022-11-30T06:08:43.866Z,7.35
2022-11-30T06:11:13.157Z,7.29
2022-11-30T06:13:41.048Z,7.24
2022-11-30T06:16:09.954Z,7.23
2022-11-30T06:18:38.270Z,7.19
2022-11-30T06:21:07.956Z,7.22
2022-11-30T06:23:36.233Z,7.20
2022-11-30T06:26:05.857Z,7.23
2022-11-30T06:28:35.208Z,7.27
2022-11-30T06:31:04.236Z,7.31
2022-11-30T06:33:31.896Z,7.35
2022-11-30T06:35:59.885Z,7.10
2022-11-30T06:38:27.963Z,7.41
2022-11-30T06:40:55.605Z,7.48
2022-11-30T06:43:23.327Z,7.24
2022-11-30T06:45:52.334Z,7.39
2022-11-30T06:48:22.481Z,7.25
2022-11-30T06:50:50.397Z,7.43
2022-11-30T06:53:18.071Z,7.40
2022-11-30T06:55:45.701Z,7.44
2022-11-30T06:58:13.452Z,7.46
2022-11-30T07:00:42.636Z,7.53
2022-11-30T07:03:13.007Z,7.24
2022-11-30T07:05:43.739Z,7.42
2022-11-30T07:08:11.479Z,7.47
2022-11-30T07:10:41.869Z,7.44
2022-11-30T07:13:12.194Z,7.31
2022-11-30T07:15:40.356Z,7.58
2022-11-30T07:18:08.598Z,7.53
2022-11-30T07:20:38.448Z,7.58
2022-11-30T07:23:20.434Z,7.38
2022-11-30T07:26:05.903Z,7.34
2022-11-30T07:28:33.747Z,7.54
2022-11-30T07:31:01.416Z,7.38
2022-11-30T07:33:29.079Z,7.25
2022-11-30T07:35:58.061Z,7.30
2022-11-30T07:38:25.783Z,7.44
2022-11-30T07:40:53.467Z,7.25
2022-11-30T07:43:21.241Z,7.43
2022-11-30T07:45:53.468Z,7.35
2022-11-30T07:48:21.671Z,7.19
2022-11-30T07:50:49.770Z,7.25
2022-11-30T07:53:18.931Z,7.55
2022-11-30T07:55:46.732Z,7.25
2022-11-30T07:58:17.445Z,7.17
2022-11-30T08:00:45.499Z,7.22
2022-11-30T08:03:13.160Z,7.42
2022-11-30T08:05:40.731Z,7.40
2022-11-30T08:08:08.337Z,7.60
2022-11-30T08:10:37.378Z,7.26
2022-11-30T08:13:04.959Z,7.39
2022-11-30T08:15:34.693Z,7.33
2022-11-30T08:18:05.660Z,7.25
2022-11-30T08:20:33.382Z,7.22
2022-11-30T08:23:01.020Z,7.30
2022-11-30T08:25:29.054Z,7.61
2022-11-30T08:27:58.054Z,7.78
2022-11-30T08:30:27.897Z,7.61
2022-11-30T08:33:01.136Z,7.35
2022-11-30T08:35:28.804Z,7.52
2022-11-30T08:37:56.408Z,7.68
2022-11-30T08:40:24.170Z,7.59
2022-11-30T08:42:51.838Z,7.58
2022-11-30T08:45:20.771Z,7.65
2022-11-30T08:47:48.406Z,7.55
2022-11-30T08:50:16.070Z,7.65
2022-11-30T08:52:43.701Z,7.66
2022-11-30T08:55:11.572Z,7.58
2022-11-30T08:57:39.346Z,7.89
2022-11-30T09:00:09.098Z,7.80
2022-11-30T09:02:39.515Z,7.52
2022-11-30T09:05:07.637Z,7.57
2022-11-30T09:07:35.400Z,7.60
2022-11-30T09:10:03.135Z,7.74
2022-11-30T09:12:30.816Z,7.72
2022-11-30T09:14:58.992Z,7.89
2022-11-30T09:17:27.332Z,7.83
2022-11-30T09:19:56.325Z,8.02
2022-11-30T09:22:24.038Z,8.26
2022-11-30T09:24:51.823Z,8.19
2022-11-30T09:27:19.511Z,8.13
2022-11-30T09:29:47.307Z,8.18
2022-11-30T09:32:15.006Z,8.10
2022-11-30T09:34:44.014Z,7.98
2022-11-30T09:37:12.938Z,8.15
2022-11-30T09:39:40.561Z,8.18
2022-11-30T09:42:25.328Z,8.10
2022-11-30T09:45:01.330Z,8.09
2022-11-30T09:47:45.652Z,8.19
2022-11-30T09:50:16.187Z,8.18
2022-11-30T09:52:49.728Z,8.43
2022-11-30T09:55:26.633Z,8.01
2022-11-30T09:57:56.692Z,8.09
2022-11-30T10:00:25.972Z,8.27
2022-11-30T10:02:55.528Z,8.18
2022-11-30T10:05:25.936Z,8.21
2022-11-30T10:08:19.647Z,8.01
2022-11-30T10:10:56.099Z,8.38
2022-11-30T10:13:41.215Z,8.01
2022-11-30T10:16:21.636Z,7.90
2022-11-30T10:18:57.544Z,7.87
2022-11-30T10:21:40.684Z,7.98
2022-11-30T10:24:21.720Z,8.20
2022-11-30T10:26:56.467Z,7.87
2022-11-30T10:29:31.755Z,7.98
2022-11-30T10:32:01.500Z,7.87
2022-11-30T10:34:34.427Z,7.80
2022-11-30T10:37:06.989Z,8.05
2022-11-30T10:39:44.112Z,7.75
2022-11-30T10:42:17.296Z,8.11
2022-11-30T10:44:53.571Z,8.12
2022-11-30T10:47:27.197Z,8.37
2022-11-30T10:49:54.930Z,8.05
2022-11-30T10:52:26.774Z,7.69
2022-11-30T10:55:04.176Z,8.22
2022-11-30T10:57:33.466Z,8.07
2022-11-30T11:00:05.908Z,7.84
2022-11-30T11:02:42.246Z,7.95
2022-11-30T11:05:19.656Z,8.25
2022-11-30T11:07:54.976Z,8.15
2022-11-30T11:10:30.436Z,7.94
2022-11-30T11:12:59.128Z,8.06
2022-11-30T11:15:28.051Z,8.17
2022-11-30T11:18:20.408Z,8.36
2022-11-30T11:20:48.138Z,8.66
2022-11-30T11:23:23.859Z,8.82
2022-11-30T11:25:54.158Z,8.89
2022-11-30T11:28:24.404Z,8.88
2022-11-30T11:30:55.652Z,8.63
2022-11-30T11:33:25.500Z,8.50
2022-11-30T11:35:55.387Z,8.42
2022-11-30T11:38:28.589Z,8.13
2022-11-30T11:41:01.284Z,8.39
2022-11-30T11:43:31.679Z,8.15
2022-11-30T11:46:11.179Z,8.11
2022-11-30T11:48:41.853Z,8.57
2022-11-30T11:51:11.297Z,8.66
2022-11-30T11:53:50.012Z,8.53
2022-11-30T11:56:26.963Z,8.23
2022-11-30T11:58:59.880Z,8.32
2022-11-30T12:01:51.677Z,8.33
2022-11-30T12:04:40.890Z,8.53
2022-11-30T12:07:18.433Z,8.52
2022-11-30T12:09:58.534Z,8.81
2022-11-30T12:12:28.603Z,8.89
2022-11-30T12:14:57.359Z,8.92
2022-11-30T12:17:39.748Z,9.07
2022-11-30T12:20:18.464Z,8.75
2022-11-30T12:23:01.859Z,8.83
2022-11-30T12:25:33.843Z,8.92
2022-11-30T12:28:18.071Z,8.74
2022-11-30T12:30:55.910Z,8.61
2022-11-30T12:33:35.167Z,8.59
2022-11-30T12:36:11.466Z,9.03
2022-11-30T12:38:48.206Z,9.21
2022-11-30T12:41:32.435Z,9.05
2022-11-30T12:44:16.017Z,9.05
2022-11-30T12:46:54.464Z,8.85
2022-11-30T12:49:42.199Z,8.68
2022-11-30T12:52:25.276Z,8.58
2022-11-30T12:54:59.624Z,8.51
2022-11-30T12:57:31.558Z,8.46
2022-11-30T13:00:09.716Z,8.36
2022-11-30T13:02:54.528Z,8.42
2022-11-30T13:05:27.209Z,8.20
2022-11-30T13:08:00.931Z,8.33
2022-11-30T13:10:33.587Z,8.22
2022-11-30T13:13:04.290Z,8.45
2022-11-30T13:15:35.327Z,8.34
2022-11-30T13:18:04.572Z,8.50
2022-11-30T13:20:39.736Z,8.02
2022-11-30T13:23:14.884Z,8.25
2022-11-30T13:29:08.488Z,8.28
2022-11-30T13:31:42.511Z,8.42
2022-11-30T13:34:25.495Z,8.19
2022-11-30T13:37:01.575Z,8.50
2022-11-30T13:39:31.385Z,8.34
2022-11-30T13:42:32.969Z,8.24
2022-11-30T13:45:19.661Z,8.46
2022-11-30T13:47:51.027Z,8.16
2022-11-30T13:50:26.265Z,8.37
2022-11-30T13:53:22.693Z,7.96
2022-11-30T13:55:57.911Z,8.30
2022-11-30T13:58:26.779Z,8.13
2022-11-30T14:01:26.828Z,8.14
2022-11-30T14:04:31.473Z,8.45
2022-11-30T14:07:00.687Z,8.38
2022-11-30T14:10:08.512Z,8.23
2022-11-30T14:13:01.311Z,7.90
2022-11-30T14:15:54.297Z,8.27
2022-11-30T14:18:29.226Z,8.16
2022-11-30T14:21:02.659Z,8.38
2022-11-30T14:23:35.403Z,7.99
2022-11-30T14:26:10.680Z,8.01
2022-11-30T14:28:44.596Z,8.00
2022-11-30T14:31:19.508Z,8.19
2022-11-30T14:33:52.250Z,8.21
2022-11-30T14:36:22.905Z,7.78
2022-11-30T14:38:50.880Z,8.22
2022-11-30T14:41:22.021Z,8.01
2022-11-30T14:44:05.683Z,8.22
2022-11-30T14:46:35.836Z,8.19
2022-11-30T14:49:22.298Z,8.17
2022-11-30T14:51:53.910Z,8.13
2022-11-30T14:54:45.197Z,8.06
2022-11-30T14:57:21.456Z,7.98
2022-11-30T14:59:53.987Z,7.83
2022-11-30T15:02:27.527Z,7.94
2022-11-30T15:04:56.278Z,7.91
2022-11-30T15:07:26.475Z,7.98
2022-11-30T15:10:02.575Z,8.01
2022-11-30T15:12:30.816Z,7.90
2022-11-30T15:15:07.477Z,7.91
2022-11-30T15:17:47.396Z,7.99
2022-11-30T15:20:20.709Z,7.99
2022-11-30T15:22:49.822Z,7.85
2022-11-30T15:25:17.823Z,8.00
2022-11-30T15:27:45.980Z,7.83
2022-11-30T15:30:17.664Z,7.95
2022-11-30T15:32:48.018Z,8.06
2022-11-30T15:35:21.381Z,8.14
2022-11-30T15:37:50.865Z,8.13
2022-11-30T15:40:31.558Z,7.92
2022-11-30T15:43:00.371Z,7.82
2022-11-30T15:45:30.109Z,8.08
2022-11-30T15:47:59.712Z,8.37
2022-11-30T15:50:37.157Z,8.10
2022-11-30T15:53:25.173Z,8.08
2022-11-30T15:55:54.309Z,8.08
2022-11-30T15:58:27.809Z,7.92
2022-11-30T16:01:11.018Z,7.92
2022-11-30T16:04:04.227Z,8.42
2022-11-30T16:06:34.977Z,7.78
2022-11-30T16:09:08.281Z,7.70
2022-11-30T16:11:36.558Z,7.76
2022-11-30T16:14:04.198Z,7.87
2022-11-30T16:16:33.907Z,7.84
2022-11-30T16:19:01.659Z,8.10
2022-11-30T16:21:29.374Z,8.30
2022-11-30T16:23:57.058Z,8.03
2022-11-30T16:26:50.156Z,7.80
2022-11-30T16:29:13.715Z,8.18
2022-11-30T16:31:41.390Z,7.90
2022-11-30T16:34:12.233Z,7.96
2022-11-30T16:36:39.851Z,7.91
2022-11-30T16:39:11.773Z,7.79
2022-11-30T16:41:40.741Z,7.99
2022-11-30T16:44:14.091Z,8.19
2022-11-30T16:46:41.868Z,8.18
2022-11-30T16:49:09.853Z,8.14
2022-11-30T16:51:37.569Z,8.35
2022-11-30T16:54:05.531Z,8.15
2022-11-30T16:56:33.499Z,8.09
2022-11-30T16:59:02.510Z,7.89
2022-11-30T17:01:36.176Z,7.81
2022-11-30T17:04:12.888Z,7.68
2022-11-30T17:06:40.528Z,8.11
2022-11-30T17:09:12.697Z,8.12
2022-11-30T17:11:40.892Z,8.16
2022-11-30T17:14:13.069Z,8.15
2022-11-30T17:16:40.816Z,7.91
2022-11-30T17:19:08.592Z,7.74
2022-11-30T17:21:38.784Z,7.90
2022-11-30T17:24:08.418Z,7.76
2022-11-30T17:26:36.076Z,7.97
2022-11-30T17:29:04.299Z,7.95
2022-11-30T17:31:34.261Z,7.82
2022-11-30T17:34:01.917Z,7.77
2022-11-30T17:36:29.935Z,7.87
2022-11-30T17:38:57.607Z,7.58
2022-11-30T17:41:25.236Z,7.53
2022-11-30T17:43:53.021Z,7.66
2022-11-30T17:46:22.299Z,7.98
2022-11-30T17:48:51.759Z,8.06
2022-11-30T17:51:19.492Z,8.13
2022-11-30T17:53:47.168Z,8.02
2022-11-30T17:56:17.045Z,7.82
2022-11-30T17:58:46.104Z,7.69
2022-11-30T18:01:18.552Z,7.78
2022-11-30T18:03:46.538Z,7.89
2022-11-30T18:06:16.005Z,7.68
2022-11-30T18:08:43.804Z,7.40
2022-11-30T18:11:13.345Z,7.84
2022-11-30T18:13:41.532Z,7.75
2022-11-30T18:16:11.943Z,7.62
2022-11-30T18:18:44.381Z,7.91
2022-11-30T18:21:16.847Z,7.98
2022-11-30T18:23:44.776Z,8.28
2022-11-30T18:26:14.019Z,7.89
2022-11-30T18:28:41.934Z,8.21
2022-11-30T18:31:10.103Z,8.18
2022-11-30T18:33:38.739Z,8.45
2022-11-30T18:36:33.137Z,8.17
2022-11-30T18:39:00.933Z,8.28
2022-11-30T18:41:30.285Z,8.11
2022-11-30T18:43:57.906Z,8.39
2022-11-30T18:46:26.344Z,8.43
2022-11-30T18:48:55.286Z,8.44
2022-11-30T18:51:25.241Z,8.07
2022-11-30T18:53:58.583Z,8.34
2022-11-30T18:56:27.718Z,8.37
2022-11-30T18:58:56.823Z,8.31
2022-11-30T19:01:25.559Z,8.45
2022-11-30T19:03:54.552Z,8.25
2022-11-30T19:06:22.480Z,8.21
2022-11-30T19:08:50.421Z,8.06
2022-11-30T19:11:19.643Z,7.94
2022-11-30T19:13:47.476Z,7.87
2022-11-30T19:16:17.094Z,8.06
2022-11-30T19:18:45.989Z,8.18
2022-11-30T19:21:16.798Z,7.80
2022-11-30T19:23:45.389Z,8.17
2022-11-30T19:26:14.319Z,8.14
2022-11-30T19:28:44.619Z,7.82
2022-11-30T19:31:14.498Z,7.90
2022-11-30T19:33:44.547Z,7.99
2022-11-30T19:36:14.742Z,8.02
2022-11-30T19:38:42.820Z,8.11
2022-11-30T19:41:12.414Z,7.73
2022-11-30T19:43:40.778Z,7.86
2022-11-30T19:46:11.753Z,8.02
2022-11-30T19:48:39.920Z,7.87
2022-11-30T19:51:13.264Z,7.79
2022-11-30T19:53:43.766Z,8.02
2022-11-30T19:56:14.318Z,8.09
2022-11-30T19:58:42.268Z,7.85
2022-11-30T20:01:14.649Z,7.62
2022-11-30T20:03:44.116Z,7.68
2022-11-30T20:06:12.568Z,8.03
2022-11-30T20:08:40.539Z,7.88
2022-11-30T20:11:08.730Z,7.90
2022-11-30T20:13:36.806Z,7.65
2022-11-30T20:16:09.175Z,7.62
2022-11-30T20:18:44.202Z,7.47
2022-11-30T20:21:15.967Z,7.50
2022-11-30T20:23:45.338Z,7.73
2022-11-30T20:26:15.057Z,7.39
2022-11-30T20:28:43.164Z,7.73
2022-11-30T20:31:12.525Z,7.58
2022-11-30T20:33:41.883Z,7.69
2022-11-30T20:36:11.501Z,7.69
2022-11-30T20:38:39.900Z,7.47
2022-11-30T20:41:11.766Z,7.56
2022-11-30T20:43:39.802Z,7.19
2022-11-30T20:46:14.522Z,7.57
2022-11-30T20:48:43.926Z,7.74
2022-11-30T20:54:00.943Z,7.84
2022-11-30T20:56:28.777Z,7.78
2022-11-30T20:58:56.801Z,7.67
2022-11-30T21:01:24.722Z,7.76
2022-11-30T21:03:53.956Z,7.78
2022-11-30T21:06:21.625Z,7.87
2022-11-30T21:08:49.261Z,7.81
2022-11-30T21:11:19.195Z,7.79
2022-11-30T21:13:49.017Z,7.85
2022-11-30T21:16:22.534Z,7.68
2022-11-30T21:18:54.944Z,7.70
2022-11-30T21:21:24.579Z,7.55
2022-11-30T21:23:53.012Z,7.53
2022-11-30T21:26:23.529Z,7.51
2022-11-30T21:28:53.092Z,7.47
2022-11-30T21:31:21.527Z,7.59
2022-11-30T21:33:53.229Z,7.63
2022-11-30T21:36:23.454Z,7.68
2022-11-30T21:38:58.302Z,7.53
2022-11-30T21:41:32.008Z,7.52
2022-11-30T21:43:59.649Z,7.49
2022-11-30T21:46:27.248Z,7.29
2022-11-30T21:48:54.884Z,7.54
2022-11-30T21:51:25.507Z,7.61
2022-11-30T21:53:56.406Z,7.44
2022-11-30T21:56:26.367Z,7.37
2022-11-30T21:58:54.775Z,7.36
2022-11-30T22:01:25.099Z,7.46
2022-11-30T22:03:53.959Z,7.57
2022-11-30T22:06:22.503Z,7.64
2022-11-30T22:08:51.545Z,7.48
2022-11-30T22:11:21.199Z,7.30
2022-11-30T22:13:51.028Z,7.13
2022-11-30T22:16:19.948Z,7.34
2022-11-30T22:18:48.574Z,7.21
2022-11-30T22:21:18.260Z,6.96
2022-11-30T22:23:47.454Z,7.03
2022-11-30T22:26:18.477Z,6.97
2022-11-30T22:28:48.461Z,6.81
2022-11-30T22:31:18.814Z,6.73
2022-11-30T22:33:46.754Z,6.74
2022-11-30T22:36:16.601Z,6.84
2022-11-30T22:38:45.089Z,6.90
2022-11-30T22:41:14.561Z,6.85
2022-11-30T22:43:43.872Z,6.54
2022-11-30T22:46:13.556Z,6.81
2022-11-30T22:48:42.336Z,6.83
2022-11-30T22:51:12.418Z,6.90
2022-11-30T22:53:41.034Z,7.02
2022-11-30T22:56:11.377Z,6.92
2022-11-30T22:58:39.287Z,6.72
2022-11-30T23:01:12.289Z,6.36
2022-11-30T23:03:41.469Z,6.46
2022-11-30T23:06:10.108Z,6.60
2022-11-30T23:08:38.149Z,6.29
2022-11-30T23:11:08.210Z,6.18
2022-11-30T23:13:36.740Z,6.24
2022-11-30T23:16:05.119Z,6.48
2022-11-30T23:18:38.596Z,6.40
2022-11-30T23:21:07.948Z,6.34
2022-11-30T23:23:35.711Z,6.38
2022-11-30T23:26:11.095Z,6.40
2022-11-30T23:28:40.898Z,6.48
2022-11-30T23:31:10.284Z,6.48
2022-11-30T23:33:59.409Z,6.35
2022-11-30T23:36:27.192Z,6.47
2022-11-30T23:38:57.510Z,6.49
2022-11-30T23:41:25.724Z,6.48
2022-11-30T23:43:53.800Z,6.43
2022-11-30T23:46:21.596Z,6.23
2022-11-30T23:48:49.373Z,6.35
2022-11-30T23:51:19.474Z,6.27
2022-11-30T23:53:48.662Z,6.18
2022-11-30T23:56:19.716Z,6.28
2022-11-30T23:58:48.561Z,6.37
